Gaspar, Brazil
Current Conditions -  °F | °C
As of 1:00 PM on Wednesday 26 Nov 2014 (Local Time) from SBNF Reporting Station
Broken Clouds Broken Clouds  
Wind Chill: 79°   Ceiling: 3000
Heat Index: 82°   Visibility: 6mi
Dew Point: 75°   Wind: 12mph
Humidity: 89%   Direction: 140°SE
Pressure: 29.74"   Gusts: NA
Location:  26.94°S, 48.96°W
Report Text: SBNF 261500Z 14010KT 9999 SCT020 BKN030 26/24 Q1007
Loading
Personal Weather Stations






























Interactive Weather Map New forecast layout! Learn more

10-Day Weather Forecast

Advertisements
Track Severe Weather on mobile